sensor_id;sensor_type;location;lat;lon;timestamp;P1;durP1;ratioP1;P2;durP2;ratioP2
3427;SDS011;1727;42.624;23.406;2023-08-21T00:02:00;7.90;;;7.03;;
3427;SDS011;1727;42.624;23.406;2023-08-21T00:04:28;8.20;;;7.40;;
3427;SDS011;1727;42.624;23.406;2023-08-21T00:06:54;8.70;;;7.23;;
3427;SDS011;1727;42.624;23.406;2023-08-21T00:09:21;8.80;;;6.83;;
3427;SDS011;1727;42.624;23.406;2023-08-21T00:11:48;8.27;;;6.57;;
3427;SDS011;1727;42.624;23.406;2023-08-21T00:14:15;7.30;;;6.60;;
3427;SDS011;1727;42.624;23.406;2023-08-21T00:16:41;7.93;;;7.23;;
3427;SDS011;1727;42.624;23.406;2023-08-21T00:19:08;7.57;;;6.57;;
3427;SDS011;1727;42.624;23.406;2023-08-21T00:21:37;6.90;;;6.30;;
3427;SDS011;1727;42.624;23.406;2023-08-21T00:24:06;7.70;;;6.90;;
3427;SDS011;1727;42.624;23.406;2023-08-21T00:26:33;10.73;;;8.10;;
3427;SDS011;1727;42.624;23.406;2023-08-21T00:28:59;6.87;;;6.27;;
3427;SDS011;1727;42.624;23.406;2023-08-21T00:31:26;7.63;;;6.93;;
3427;SDS011;1727;42.624;23.406;2023-08-21T00:33:53;10.60;;;7.60;;
3427;SDS011;1727;42.624;23.406;2023-08-21T00:36:20;9.97;;;7.37;;
3427;SDS011;1727;42.624;23.406;2023-08-21T00:38:48;10.20;;;8.03;;
3427;SDS011;1727;42.624;23.406;2023-08-21T00:41:15;7.20;;;6.50;;
3427;SDS011;1727;42.624;23.406;2023-08-21T00:43:41;10.30;;;6.93;;
3427;SDS011;1727;42.624;23.406;2023-08-21T00:46:08;6.77;;;6.20;;
3427;SDS011;1727;42.624;23.406;2023-08-21T00:48:36;7.20;;;6.60;;
3427;SDS011;1727;42.624;23.406;2023-08-21T00:51:05;8.10;;;7.13;;
3427;SDS011;1727;42.624;23.406;2023-08-21T00:53:33;8.03;;;7.10;;
3427;SDS011;1727;42.624;23.406;2023-08-21T00:56:01;8.87;;;7.97;;
3427;SDS011;1727;42.624;23.406;2023-08-21T00:58:28;7.53;;;6.93;;
3427;SDS011;1727;42.624;23.406;2023-08-21T01:00:55;7.43;;;6.83;;
3427;SDS011;1727;42.624;23.406;2023-08-21T01:03:23;7.57;;;6.90;;
3427;SDS011;1727;42.624;23.406;2023-08-21T01:05:50;11.30;;;7.17;;
3427;SDS011;1727;42.624;23.406;2023-08-21T01:08:19;15.73;;;8.73;;
3427;SDS011;1727;42.624;23.406;2023-08-21T01:10:52;8.23;;;7.40;;
3427;SDS011;1727;42.624;23.406;2023-08-21T01:13:26;7.73;;;7.03;;
3427;SDS011;1727;42.624;23.406;2023-08-21T01:16:06;8.57;;;7.73;;
3427;SDS011;1727;42.624;23.406;2023-08-21T01:18:34;7.67;;;6.97;;
3427;SDS011;1727;42.624;23.406;2023-08-21T01:21:02;8.83;;;8.03;;
3427;SDS011;1727;42.624;23.406;2023-08-21T01:23:34;10.13;;;7.80;;
3427;SDS011;1727;42.624;23.406;2023-08-21T01:26:02;8.23;;;7.50;;
3427;SDS011;1727;42.624;23.406;2023-08-21T01:28:29;8.10;;;7.03;;
3427;SDS011;1727;42.624;23.406;2023-08-21T01:30:59;8.47;;;7.67;;
3427;SDS011;1727;42.624;23.406;2023-08-21T01:33:32;8.13;;;7.27;;
3427;SDS011;1727;42.624;23.406;2023-08-21T01:36:02;7.83;;;7.07;;
3427;SDS011;1727;42.624;23.406;2023-08-21T01:38:31;10.20;;;7.53;;
3427;SDS011;1727;42.624;23.406;2023-08-21T01:41:00;7.23;;;6.53;;
3427;SDS011;1727;42.624;23.406;2023-08-21T01:43:27;8.20;;;7.43;;
3427;SDS011;1727;42.624;23.406;2023-08-21T01:45:54;9.80;;;6.93;;
3427;SDS011;1727;42.624;23.406;2023-08-21T01:48:21;8.60;;;7.70;;
3427;SDS011;1727;42.624;23.406;2023-08-21T01:50:48;8.30;;;7.50;;
3427;SDS011;1727;42.624;23.406;2023-08-21T01:53:14;9.50;;;7.07;;
3427;SDS011;1727;42.624;23.406;2023-08-21T01:55:41;9.17;;;7.33;;
3427;SDS011;1727;42.624;23.406;2023-08-21T01:58:09;7.77;;;7.03;;
3427;SDS011;1727;42.624;23.406;2023-08-21T02:00:36;8.33;;;6.90;;
3427;SDS011;1727;42.624;23.406;2023-08-21T02:03:05;7.67;;;6.97;;
3427;SDS011;1727;42.624;23.406;2023-08-21T02:05:36;9.27;;;7.00;;
3427;SDS011;1727;42.624;23.406;2023-08-21T02:08:04;9.30;;;8.50;;
3427;SDS011;1727;42.624;23.406;2023-08-21T02:10:31;7.53;;;6.83;;
3427;SDS011;1727;42.624;23.406;2023-08-21T02:12:58;13.53;;;8.40;;
3427;SDS011;1727;42.624;23.406;2023-08-21T02:15:26;7.37;;;6.77;;
3427;SDS011;1727;42.624;23.406;2023-08-21T02:17:53;11.53;;;7.77;;
3427;SDS011;1727;42.624;23.406;2023-08-21T02:20:22;8.87;;;7.97;;
3427;SDS011;1727;42.624;23.406;2023-08-21T02:22:49;7.83;;;7.13;;
3427;SDS011;1727;42.624;23.406;2023-08-21T02:25:15;8.40;;;7.70;;
3427;SDS011;1727;42.624;23.406;2023-08-21T02:27:42;9.30;;;8.40;;
3427;SDS011;1727;42.624;23.406;2023-08-21T02:30:09;9.10;;;8.03;;
3427;SDS011;1727;42.624;23.406;2023-08-21T02:32:38;8.87;;;7.80;;
3427;SDS011;1727;42.624;23.406;2023-08-21T02:35:05;8.40;;;7.33;;
3427;SDS011;1727;42.624;23.406;2023-08-21T02:37:33;8.50;;;7.70;;
3427;SDS011;1727;42.624;23.406;2023-08-21T02:40:04;7.90;;;7.20;;
3427;SDS011;1727;42.624;23.406;2023-08-21T02:42:52;8.50;;;7.70;;
3427;SDS011;1727;42.624;23.406;2023-08-21T02:45:19;7.93;;;7.30;;
3427;SDS011;1727;42.624;23.406;2023-08-21T02:47:47;9.30;;;8.27;;
3427;SDS011;1727;42.624;23.406;2023-08-21T02:50:14;15.97;;;8.00;;
3427;SDS011;1727;42.624;23.406;2023-08-21T02:52:40;8.00;;;7.20;;
3427;SDS011;1727;42.624;23.406;2023-08-21T02:55:07;11.90;;;7.73;;
3427;SDS011;1727;42.624;23.406;2023-08-21T02:57:37;11.13;;;8.67;;
3427;SDS011;1727;42.624;23.406;2023-08-21T03:00:05;9.73;;;7.57;;
3427;SDS011;1727;42.624;23.406;2023-08-21T03:02:34;8.30;;;7.50;;
3427;SDS011;1727;42.624;23.406;2023-08-21T03:05:05;9.00;;;8.20;;
3427;SDS011;1727;42.624;23.406;2023-08-21T03:07:34;8.03;;;7.23;;
3427;SDS011;1727;42.624;23.406;2023-08-21T03:10:00;8.90;;;8.10;;
3427;SDS011;1727;42.624;23.406;2023-08-21T03:12:28;8.40;;;7.73;;
3427;SDS011;1727;42.624;23.406;2023-08-21T03:14:54;9.33;;;7.33;;
3427;SDS011;1727;42.624;23.406;2023-08-21T03:17:21;16.80;;;8.10;;
3427;SDS011;1727;42.624;23.406;2023-08-21T03:19:48;8.47;;;7.77;;
3427;SDS011;1727;42.624;23.406;2023-08-21T03:22:16;9.17;;;8.13;;
3427;SDS011;1727;42.624;23.406;2023-08-21T03:24:43;9.07;;;8.17;;
3427;SDS011;1727;42.624;23.406;2023-08-21T03:27:10;8.37;;;7.67;;
3427;SDS011;1727;42.624;23.406;2023-08-21T03:29:37;17.63;;;8.10;;
3427;SDS011;1727;42.624;23.406;2023-08-21T03:32:05;9.83;;;8.27;;
3427;SDS011;1727;42.624;23.406;2023-08-21T03:34:31;11.37;;;7.87;;
3427;SDS011;1727;42.624;23.406;2023-08-21T03:36:58;8.10;;;7.30;;
3427;SDS011;1727;42.624;23.406;2023-08-21T03:39:26;8.10;;;7.30;;
3427;SDS011;1727;42.624;23.406;2023-08-21T03:41:53;9.47;;;8.17;;
3427;SDS011;1727;42.624;23.406;2023-08-21T03:44:20;9.00;;;8.30;;
3427;SDS011;1727;42.624;23.406;2023-08-21T03:46:46;8.43;;;7.63;;
3427;SDS011;1727;42.624;23.406;2023-08-21T03:49:13;7.50;;;6.90;;
3427;SDS011;1727;42.624;23.406;2023-08-21T03:51:40;7.93;;;7.23;;
3427;SDS011;1727;42.624;23.406;2023-08-21T03:54:07;9.17;;;8.17;;
3427;SDS011;1727;42.624;23.406;2023-08-21T03:56:35;8.33;;;7.53;;
3427;SDS011;1727;42.624;23.406;2023-08-21T03:59:02;11.23;;;7.93;;
3427;SDS011;1727;42.624;23.406;2023-08-21T04:01:29;8.30;;;7.50;;
3427;SDS011;1727;42.624;23.406;2023-08-21T04:03:55;10.13;;;8.33;;
3427;SDS011;1727;42.624;23.406;2023-08-21T04:06:22;11.43;;;8.00;;
3427;SDS011;1727;42.624;23.406;2023-08-21T04:08:49;12.43;;;9.30;;
3427;SDS011;1727;42.624;23.406;2023-08-21T04:11:16;10.60;;;8.40;;
3427;SDS011;1727;42.624;23.406;2023-08-21T04:13:44;9.93;;;8.77;;
3427;SDS011;1727;42.624;23.406;2023-08-21T04:16:11;9.13;;;8.33;;
3427;SDS011;1727;42.624;23.406;2023-08-21T04:18:38;11.50;;;7.90;;
3427;SDS011;1727;42.624;23.406;2023-08-21T04:21:04;9.13;;;8.33;;
3427;SDS011;1727;42.624;23.406;2023-08-21T04:23:31;9.13;;;8.30;;
3427;SDS011;1727;42.624;23.406;2023-08-21T04:25:59;7.87;;;7.07;;
3427;SDS011;1727;42.624;23.406;2023-08-21T04:28:27;9.07;;;8.20;;
3427;SDS011;1727;42.624;23.406;2023-08-21T04:30:56;8.97;;;8.23;;
3427;SDS011;1727;42.624;23.406;2023-08-21T04:33:23;9.43;;;8.17;;
3427;SDS011;1727;42.624;23.406;2023-08-21T04:35:50;8.07;;;7.27;;
3427;SDS011;1727;42.624;23.406;2023-08-21T04:38:17;10.23;;;9.03;;
3427;SDS011;1727;42.624;23.406;2023-08-21T04:40:43;18.93;;;8.60;;
3427;SDS011;1727;42.624;23.406;2023-08-21T04:43:10;11.50;;;8.20;;
3427;SDS011;1727;42.624;23.406;2023-08-21T04:45:37;7.83;;;7.07;;
3427;SDS011;1727;42.624;23.406;2023-08-21T04:48:05;26.63;;;8.67;;
3427;SDS011;1727;42.624;23.406;2023-08-21T04:50:32;18.63;;;9.03;;
3427;SDS011;1727;42.624;23.406;2023-08-21T04:52:59;10.50;;;8.60;;
3427;SDS011;1727;42.624;23.406;2023-08-21T04:55:26;19.17;;;8.90;;
3427;SDS011;1727;42.624;23.406;2023-08-21T04:57:52;18.50;;;10.20;;
3427;SDS011;1727;42.624;23.406;2023-08-21T05:00:19;12.47;;;9.77;;
3427;SDS011;1727;42.624;23.406;2023-08-21T05:02:46;14.60;;;10.60;;
3427;SDS011;1727;42.624;23.406;2023-08-21T05:05:14;11.33;;;9.13;;
3427;SDS011;1727;42.624;23.406;2023-08-21T05:07:41;11.67;;;9.63;;
3427;SDS011;1727;42.624;23.406;2023-08-21T05:10:08;13.33;;;8.73;;
3427;SDS011;1727;42.624;23.406;2023-08-21T05:12:35;13.70;;;9.60;;
3427;SDS011;1727;42.624;23.406;2023-08-21T05:15:02;10.60;;;9.47;;
3427;SDS011;1727;42.624;23.406;2023-08-21T05:17:29;10.67;;;9.03;;
3427;SDS011;1727;42.624;23.406;2023-08-21T05:19:56;12.50;;;9.23;;
3427;SDS011;1727;42.624;23.406;2023-08-21T05:22:24;21.20;;;10.20;;
3427;SDS011;1727;42.624;23.406;2023-08-21T05:24:51;9.80;;;8.60;;
3427;SDS011;1727;42.624;23.406;2023-08-21T05:27:18;15.07;;;9.20;;
3427;SDS011;1727;42.624;23.406;2023-08-21T05:29:44;20.43;;;11.67;;
3427;SDS011;1727;42.624;23.406;2023-08-21T05:32:11;15.70;;;8.30;;
3427;SDS011;1727;42.624;23.406;2023-08-21T05:34:38;12.83;;;9.80;;
3427;SDS011;1727;42.624;23.406;2023-08-21T05:37:05;15.80;;;9.50;;
3427;SDS011;1727;42.624;23.406;2023-08-21T05:39:33;9.53;;;8.63;;
3427;SDS011;1727;42.624;23.406;2023-08-21T05:42:00;15.20;;;8.17;;
3427;SDS011;1727;42.624;23.406;2023-08-21T05:44:27;9.20;;;8.23;;
3427;SDS011;1727;42.624;23.406;2023-08-21T05:46:54;11.40;;;7.07;;
3427;SDS011;1727;42.624;23.406;2023-08-21T05:49:20;7.77;;;7.03;;
3427;SDS011;1727;42.624;23.406;2023-08-21T05:51:47;7.83;;;6.97;;
3427;SDS011;1727;42.624;23.406;2023-08-21T05:54:14;7.50;;;6.80;;
3427;SDS011;1727;42.624;23.406;2023-08-21T05:56:42;8.40;;;7.60;;
3427;SDS011;1727;42.624;23.406;2023-08-21T05:59:09;10.03;;;6.73;;
3427;SDS011;1727;42.624;23.406;2023-08-21T06:01:37;8.40;;;7.70;;
3427;SDS011;1727;42.624;23.406;2023-08-21T06:04:03;8.00;;;6.93;;
3427;SDS011;1727;42.624;23.406;2023-08-21T06:06:30;7.80;;;7.20;;
3427;SDS011;1727;42.624;23.406;2023-08-21T06:08:57;9.43;;;7.70;;
3427;SDS011;1727;42.624;23.406;2023-08-21T06:11:24;7.97;;;7.13;;
3427;SDS011;1727;42.624;23.406;2023-08-21T06:13:52;8.07;;;7.27;;
3427;SDS011;1727;42.624;23.406;2023-08-21T06:16:19;9.10;;;7.50;;
3427;SDS011;1727;42.624;23.406;2023-08-21T06:18:45;9.60;;;8.10;;
3427;SDS011;1727;42.624;23.406;2023-08-21T06:21:12;8.60;;;7.70;;
3427;SDS011;1727;42.624;23.406;2023-08-21T06:23:39;10.17;;;8.43;;
3427;SDS011;1727;42.624;23.406;2023-08-21T06:26:06;8.60;;;7.27;;
3427;SDS011;1727;42.624;23.406;2023-08-21T06:28:33;8.57;;;7.30;;
3427;SDS011;1727;42.624;23.406;2023-08-21T06:31:01;7.87;;;6.97;;
3427;SDS011;1727;42.624;23.406;2023-08-21T06:33:28;8.40;;;7.60;;
3427;SDS011;1727;42.624;23.406;2023-08-21T06:35:55;7.57;;;6.87;;
3427;SDS011;1727;42.624;23.406;2023-08-21T06:38:22;16.23;;;7.97;;
3427;SDS011;1727;42.624;23.406;2023-08-21T06:40:48;8.87;;;8.07;;
3427;SDS011;1727;42.624;23.406;2023-08-21T06:43:16;16.77;;;8.03;;
3427;SDS011;1727;42.624;23.406;2023-08-21T06:45:42;9.23;;;8.30;;
3427;SDS011;1727;42.624;23.406;2023-08-21T06:48:11;9.70;;;7.27;;
3427;SDS011;1727;42.624;23.406;2023-08-21T06:50:37;9.33;;;7.93;;
3427;SDS011;1727;42.624;23.406;2023-08-21T06:53:04;7.97;;;7.17;;
3427;SDS011;1727;42.624;23.406;2023-08-21T06:55:31;9.30;;;8.27;;
3427;SDS011;1727;42.624;23.406;2023-08-21T06:57:58;10.87;;;9.07;;
3427;SDS011;1727;42.624;23.406;2023-08-21T07:00:25;11.27;;;8.40;;
3427;SDS011;1727;42.624;23.406;2023-08-21T07:02:52;9.40;;;8.10;;
3427;SDS011;1727;42.624;23.406;2023-08-21T07:05:20;9.97;;;8.13;;
3427;SDS011;1727;42.624;23.406;2023-08-21T07:07:47;10.60;;;8.70;;
3427;SDS011;1727;42.624;23.406;2023-08-21T07:10:14;13.87;;;8.30;;
3427;SDS011;1727;42.624;23.406;2023-08-21T07:12:41;9.83;;;8.60;;
3427;SDS011;1727;42.624;23.406;2023-08-21T07:15:08;13.60;;;9.30;;
3427;SDS011;1727;42.624;23.406;2023-08-21T07:17:35;9.60;;;7.70;;
3427;SDS011;1727;42.624;23.406;2023-08-21T07:20:02;9.60;;;8.70;;
3427;SDS011;1727;42.624;23.406;2023-08-21T07:22:31;9.77;;;8.03;;
3427;SDS011;1727;42.624;23.406;2023-08-21T07:24:58;14.00;;;8.67;;
3427;SDS011;1727;42.624;23.406;2023-08-21T07:27:25;11.00;;;8.37;;
3427;SDS011;1727;42.624;23.406;2023-08-21T07:29:52;11.57;;;9.30;;
3427;SDS011;1727;42.624;23.406;2023-08-21T07:32:19;15.87;;;8.57;;
3427;SDS011;1727;42.624;23.406;2023-08-21T07:34:46;12.50;;;8.73;;
3427;SDS011;1727;42.624;23.406;2023-08-21T07:37:12;14.20;;;8.60;;
3427;SDS011;1727;42.624;23.406;2023-08-21T07:39:41;9.10;;;8.30;;
3427;SDS011;1727;42.624;23.406;2023-08-21T07:42:07;15.73;;;8.90;;
3427;SDS011;1727;42.624;23.406;2023-08-21T07:44:36;12.60;;;9.30;;
3427;SDS011;1727;42.624;23.406;2023-08-21T07:47:03;14.67;;;9.37;;
3427;SDS011;1727;42.624;23.406;2023-08-21T07:49:30;12.03;;;8.73;;
3427;SDS011;1727;42.624;23.406;2023-08-21T07:51:57;15.10;;;9.60;;
3427;SDS011;1727;42.624;23.406;2023-08-21T07:54:24;13.97;;;8.93;;
3427;SDS011;1727;42.624;23.406;2023-08-21T07:56:52;11.10;;;8.70;;
3427;SDS011;1727;42.624;23.406;2023-08-21T07:59:19;19.10;;;8.80;;
3427;SDS011;1727;42.624;23.406;2023-08-21T08:01:47;15.73;;;8.90;;
3427;SDS011;1727;42.624;23.406;2023-08-21T08:04:14;12.07;;;8.53;;
3427;SDS011;1727;42.624;23.406;2023-08-21T08:06:41;10.33;;;8.60;;
3427;SDS011;1727;42.624;23.406;2023-08-21T08:09:08;13.53;;;8.80;;
3427;SDS011;1727;42.624;23.406;2023-08-21T08:11:35;8.57;;;7.87;;
3427;SDS011;1727;42.624;23.406;2023-08-21T08:14:03;8.73;;;7.87;;
3427;SDS011;1727;42.624;23.406;2023-08-21T08:16:30;8.50;;;7.70;;
3427;SDS011;1727;42.624;23.406;2023-08-21T08:18:57;15.13;;;7.97;;
3427;SDS011;1727;42.624;23.406;2023-08-21T08:21:24;9.70;;;8.50;;
3427;SDS011;1727;42.624;23.406;2023-08-21T08:23:51;10.43;;;8.73;;
3427;SDS011;1727;42.624;23.406;2023-08-21T08:26:17;12.40;;;9.00;;
3427;SDS011;1727;42.624;23.406;2023-08-21T08:28:44;9.60;;;8.07;;
3427;SDS011;1727;42.624;23.406;2023-08-21T08:31:15;9.73;;;8.80;;
3427;SDS011;1727;42.624;23.406;2023-08-21T08:33:42;16.20;;;8.53;;
3427;SDS011;1727;42.624;23.406;2023-08-21T08:36:09;15.60;;;8.27;;
3427;SDS011;1727;42.624;23.406;2023-08-21T08:38:36;9.53;;;8.37;;
3427;SDS011;1727;42.624;23.406;2023-08-21T08:41:04;10.67;;;7.87;;
3427;SDS011;1727;42.624;23.406;2023-08-21T08:43:36;17.17;;;10.00;;
3427;SDS011;1727;42.624;23.406;2023-08-21T08:46:06;10.47;;;8.10;;
3427;SDS011;1727;42.624;23.406;2023-08-21T08:48:36;8.60;;;7.70;;
3427;SDS011;1727;42.624;23.406;2023-08-21T08:51:05;9.43;;;7.73;;
3427;SDS011;1727;42.624;23.406;2023-08-21T08:53:32;9.93;;;7.97;;
3427;SDS011;1727;42.624;23.406;2023-08-21T08:55:59;10.47;;;6.90;;
3427;SDS011;1727;42.624;23.406;2023-08-21T08:58:26;8.50;;;7.77;;
3427;SDS011;1727;42.624;23.406;2023-08-21T09:00:53;13.20;;;7.27;;
3427;SDS011;1727;42.624;23.406;2023-08-21T09:03:19;8.17;;;6.53;;
3427;SDS011;1727;42.624;23.406;2023-08-21T09:05:48;10.20;;;8.17;;
3427;SDS011;1727;42.624;23.406;2023-08-21T09:08:15;8.13;;;7.10;;
3427;SDS011;1727;42.624;23.406;2023-08-21T09:10:42;10.33;;;7.50;;
3427;SDS011;1727;42.624;23.406;2023-08-21T09:13:14;15.03;;;6.70;;
3427;SDS011;1727;42.624;23.406;2023-08-21T09:15:42;9.03;;;7.07;;
3427;SDS011;1727;42.624;23.406;2023-08-21T09:18:10;7.07;;;6.37;;
3427;SDS011;1727;42.624;23.406;2023-08-21T09:20:37;9.30;;;6.50;;
3427;SDS011;1727;42.624;23.406;2023-08-21T09:23:06;13.50;;;6.80;;
3427;SDS011;1727;42.624;23.406;2023-08-21T09:25:36;9.23;;;7.30;;
3427;SDS011;1727;42.624;23.406;2023-08-21T09:28:05;8.07;;;7.27;;
3427;SDS011;1727;42.624;23.406;2023-08-21T09:30:49;8.47;;;6.80;;
3427;SDS011;1727;42.624;23.406;2023-08-21T09:33:17;9.40;;;6.97;;
3427;SDS011;1727;42.624;23.406;2023-08-21T09:35:45;8.07;;;7.37;;
3427;SDS011;1727;42.624;23.406;2023-08-21T09:38:13;10.17;;;6.70;;
3427;SDS011;1727;42.624;23.406;2023-08-21T09:40:40;10.07;;;6.63;;
3427;SDS011;1727;42.624;23.406;2023-08-21T09:43:08;12.07;;;7.37;;
3427;SDS011;1727;42.624;23.406;2023-08-21T09:45:36;15.23;;;7.53;;
3427;SDS011;1727;42.624;23.406;2023-08-21T09:48:03;8.23;;;6.87;;
3427;SDS011;1727;42.624;23.406;2023-08-21T09:50:31;7.43;;;6.77;;
3427;SDS011;1727;42.624;23.406;2023-08-21T09:52:59;8.87;;;7.10;;
3427;SDS011;1727;42.624;23.406;2023-08-21T09:55:27;7.23;;;6.63;;
3427;SDS011;1727;42.624;23.406;2023-08-21T09:57:56;6.60;;;6.00;;
3427;SDS011;1727;42.624;23.406;2023-08-21T10:00:26;8.47;;;6.67;;
3427;SDS011;1727;42.624;23.406;2023-08-21T10:02:55;10.70;;;7.37;;
3427;SDS011;1727;42.624;23.406;2023-08-21T10:05:27;6.53;;;5.97;;
3427;SDS011;1727;42.624;23.406;2023-08-21T10:07:55;11.40;;;6.53;;
3427;SDS011;1727;42.624;23.406;2023-08-21T10:10:22;8.20;;;6.83;;
3427;SDS011;1727;42.624;23.406;2023-08-21T10:12:51;8.43;;;6.30;;
3427;SDS011;1727;42.624;23.406;2023-08-21T10:15:18;17.50;;;7.43;;
3427;SDS011;1727;42.624;23.406;2023-08-21T10:17:45;13.50;;;7.37;;
3427;SDS011;1727;42.624;23.406;2023-08-21T10:20:11;7.37;;;6.67;;
3427;SDS011;1727;42.624;23.406;2023-08-21T10:22:39;7.03;;;6.43;;
3427;SDS011;1727;42.624;23.406;2023-08-21T10:25:15;6.17;;;5.50;;
3427;SDS011;1727;42.624;23.406;2023-08-21T10:27:45;8.70;;;6.83;;
3427;SDS011;1727;42.624;23.406;2023-08-21T10:30:20;7.50;;;6.90;;
3427;SDS011;1727;42.624;23.406;2023-08-21T10:32:48;9.07;;;6.57;;
3427;SDS011;1727;42.624;23.406;2023-08-21T10:35:17;12.77;;;6.53;;
3427;SDS011;1727;42.624;23.406;2023-08-21T10:40:38;8.10;;;6.40;;
3427;SDS011;1727;42.624;23.406;2023-08-21T10:46:10;7.43;;;6.73;;
3427;SDS011;1727;42.624;23.406;2023-08-21T10:48:37;6.47;;;5.97;;
3427;SDS011;1727;42.624;23.406;2023-08-21T10:51:04;7.70;;;6.90;;
3427;SDS011;1727;42.624;23.406;2023-08-21T10:53:32;7.27;;;6.20;;
3427;SDS011;1727;42.624;23.406;2023-08-21T10:56:03;6.90;;;6.20;;
3427;SDS011;1727;42.624;23.406;2023-08-21T10:58:34;7.37;;;6.67;;
3427;SDS011;1727;42.624;23.406;2023-08-21T11:01:01;9.50;;;6.40;;
3427;SDS011;1727;42.624;23.406;2023-08-21T11:03:29;7.80;;;7.03;;
3427;SDS011;1727;42.624;23.406;2023-08-21T11:06:03;6.93;;;6.23;;
3427;SDS011;1727;42.624;23.406;2023-08-21T11:08:31;7.10;;;6.40;;
3427;SDS011;1727;42.624;23.406;2023-08-21T11:10:58;7.57;;;6.93;;
3427;SDS011;1727;42.624;23.406;2023-08-21T11:13:25;13.53;;;7.50;;
3427;SDS011;1727;42.624;23.406;2023-08-21T11:15:58;7.33;;;6.73;;
3427;SDS011;1727;42.624;23.406;2023-08-21T11:18:33;8.37;;;7.57;;
3427;SDS011;1727;42.624;23.406;2023-08-21T11:21:04;6.10;;;5.70;;
3427;SDS011;1727;42.624;23.406;2023-08-21T11:23:32;6.70;;;6.10;;
3427;SDS011;1727;42.624;23.406;2023-08-21T11:26:00;7.17;;;6.30;;
3427;SDS011;1727;42.624;23.406;2023-08-21T11:28:28;6.80;;;6.30;;
3427;SDS011;1727;42.624;23.406;2023-08-21T11:30:55;6.47;;;5.97;;
3427;SDS011;1727;42.624;23.406;2023-08-21T11:33:22;8.27;;;6.33;;
3427;SDS011;1727;42.624;23.406;2023-08-21T11:35:51;12.43;;;7.20;;
3427;SDS011;1727;42.624;23.406;2023-08-21T11:38:20;7.20;;;6.60;;
3427;SDS011;1727;42.624;23.406;2023-08-21T11:40:51;7.30;;;6.57;;
3427;SDS011;1727;42.624;23.406;2023-08-21T11:43:23;12.60;;;7.20;;
3427;SDS011;1727;42.624;23.406;2023-08-21T11:46:01;7.00;;;6.40;;
3427;SDS011;1727;42.624;23.406;2023-08-21T11:48:28;6.80;;;6.10;;
3427;SDS011;1727;42.624;23.406;2023-08-21T11:50:56;7.27;;;6.57;;
3427;SDS011;1727;42.624;23.406;2023-08-21T11:53:33;10.10;;;6.40;;
3427;SDS011;1727;42.624;23.406;2023-08-21T11:56:01;11.30;;;7.07;;
3427;SDS011;1727;42.624;23.406;2023-08-21T11:58:28;6.23;;;5.73;;
3427;SDS011;1727;42.624;23.406;2023-08-21T12:01:01;9.93;;;6.63;;
3427;SDS011;1727;42.624;23.406;2023-08-21T12:03:29;7.47;;;6.27;;
3427;SDS011;1727;42.624;23.406;2023-08-21T12:05:57;7.97;;;6.03;;
3427;SDS011;1727;42.624;23.406;2023-08-21T12:08:24;11.57;;;6.77;;
3427;SDS011;1727;42.624;23.406;2023-08-21T12:10:51;8.23;;;6.17;;
3427;SDS011;1727;42.624;23.406;2023-08-21T12:13:18;13.63;;;6.97;;
3427;SDS011;1727;42.624;23.406;2023-08-21T12:15:45;9.90;;;8.17;;
3427;SDS011;1727;42.624;23.406;2023-08-21T12:18:12;8.00;;;6.63;;
3427;SDS011;1727;42.624;23.406;2023-08-21T12:20:38;7.10;;;6.40;;
3427;SDS011;1727;42.624;23.406;2023-08-21T12:23:07;7.73;;;6.07;;
3427;SDS011;1727;42.624;23.406;2023-08-21T12:25:33;6.77;;;6.17;;
3427;SDS011;1727;42.624;23.406;2023-08-21T12:28:00;13.23;;;6.33;;
3427;SDS011;1727;42.624;23.406;2023-08-21T12:30:27;6.53;;;6.03;;
3427;SDS011;1727;42.624;23.406;2023-08-21T12:32:54;7.63;;;5.53;;
3427;SDS011;1727;42.624;23.406;2023-08-21T12:35:21;6.90;;;6.40;;
3427;SDS011;1727;42.624;23.406;2023-08-21T12:37:47;6.97;;;5.93;;
3427;SDS011;1727;42.624;23.406;2023-08-21T12:40:16;11.60;;;6.70;;
3427;SDS011;1727;42.624;23.406;2023-08-21T12:42:42;7.60;;;6.20;;
3427;SDS011;1727;42.624;23.406;2023-08-21T12:45:09;7.87;;;6.97;;
3427;SDS011;1727;42.624;23.406;2023-08-21T12:47:37;6.40;;;5.80;;
3427;SDS011;1727;42.624;23.406;2023-08-21T12:50:04;6.57;;;5.97;;
3427;SDS011;1727;42.624;23.406;2023-08-21T12:52:32;6.63;;;6.00;;
3427;SDS011;1727;42.624;23.406;2023-08-21T12:54:59;7.13;;;6.43;;
3427;SDS011;1727;42.624;23.406;2023-08-21T12:57:30;6.67;;;6.07;;
3427;SDS011;1727;42.624;23.406;2023-08-21T12:59:58;6.43;;;5.83;;
3427;SDS011;1727;42.624;23.406;2023-08-21T13:02:25;12.03;;;6.43;;
3427;SDS011;1727;42.624;23.406;2023-08-21T13:04:52;12.23;;;5.73;;
3427;SDS011;1727;42.624;23.406;2023-08-21T13:07:19;7.20;;;6.50;;
3427;SDS011;1727;42.624;23.406;2023-08-21T13:09:46;7.40;;;6.70;;
3427;SDS011;1727;42.624;23.406;2023-08-21T13:12:12;7.20;;;5.70;;
3427;SDS011;1727;42.624;23.406;2023-08-21T13:14:40;7.50;;;6.50;;
3427;SDS011;1727;42.624;23.406;2023-08-21T13:17:07;7.43;;;6.73;;
3427;SDS011;1727;42.624;23.406;2023-08-21T13:19:34;6.27;;;5.77;;
3427;SDS011;1727;42.624;23.406;2023-08-21T13:22:01;6.20;;;5.60;;
3427;SDS011;1727;42.624;23.406;2023-08-21T13:24:28;9.87;;;6.43;;
3427;SDS011;1727;42.624;23.406;2023-08-21T13:26:55;7.30;;;6.70;;
3427;SDS011;1727;42.624;23.406;2023-08-21T13:29:22;6.73;;;6.20;;
3427;SDS011;1727;42.624;23.406;2023-08-21T13:31:50;7.20;;;6.20;;
3427;SDS011;1727;42.624;23.406;2023-08-21T13:34:17;10.60;;;6.60;;
3427;SDS011;1727;42.624;23.406;2023-08-21T13:36:44;7.90;;;7.00;;
3427;SDS011;1727;42.624;23.406;2023-08-21T13:39:11;7.83;;;7.07;;
3427;SDS011;1727;42.624;23.406;2023-08-21T13:41:40;7.60;;;6.60;;
3427;SDS011;1727;42.624;23.406;2023-08-21T13:44:07;10.23;;;6.70;;
3427;SDS011;1727;42.624;23.406;2023-08-21T13:46:34;9.40;;;7.03;;
3427;SDS011;1727;42.624;23.406;2023-08-21T13:49:02;6.63;;;5.87;;
3427;SDS011;1727;42.624;23.406;2023-08-21T13:51:29;6.60;;;5.97;;
3427;SDS011;1727;42.624;23.406;2023-08-21T13:53:55;7.17;;;6.50;;
3427;SDS011;1727;42.624;23.406;2023-08-21T13:56:22;7.70;;;7.10;;
3427;SDS011;1727;42.624;23.406;2023-08-21T13:58:49;7.10;;;6.40;;
3427;SDS011;1727;42.624;23.406;2023-08-21T14:01:16;7.23;;;6.20;;
3427;SDS011;1727;42.624;23.406;2023-08-21T14:03:43;8.73;;;6.07;;
3427;SDS011;1727;42.624;23.406;2023-08-21T14:06:12;9.53;;;6.30;;
3427;SDS011;1727;42.624;23.406;2023-08-21T14:08:39;7.40;;;6.73;;
3427;SDS011;1727;42.624;23.406;2023-08-21T14:11:06;8.00;;;6.00;;
3427;SDS011;1727;42.624;23.406;2023-08-21T14:13:33;9.93;;;6.87;;
3427;SDS011;1727;42.624;23.406;2023-08-21T14:15:59;15.50;;;6.80;;
3427;SDS011;1727;42.624;23.406;2023-08-21T14:18:26;5.90;;;5.40;;
3427;SDS011;1727;42.624;23.406;2023-08-21T14:20:53;6.97;;;6.37;;
3427;SDS011;1727;42.624;23.406;2023-08-21T14:23:21;8.03;;;6.57;;
3427;SDS011;1727;42.624;23.406;2023-08-21T14:25:48;9.57;;;6.50;;
3427;SDS011;1727;42.624;23.406;2023-08-21T14:28:16;9.63;;;7.10;;
3427;SDS011;1727;42.624;23.406;2023-08-21T14:30:42;7.83;;;5.83;;
3427;SDS011;1727;42.624;23.406;2023-08-21T14:33:10;7.90;;;6.97;;
3427;SDS011;1727;42.624;23.406;2023-08-21T14:35:38;6.57;;;5.90;;
3427;SDS011;1727;42.624;23.406;2023-08-21T14:38:05;7.40;;;6.80;;
3427;SDS011;1727;42.624;23.406;2023-08-21T14:40:35;6.67;;;6.20;;
3427;SDS011;1727;42.624;23.406;2023-08-21T14:43:03;11.30;;;7.00;;
3427;SDS011;1727;42.624;23.406;2023-08-21T14:45:32;7.00;;;6.30;;
3427;SDS011;1727;42.624;23.406;2023-08-21T14:47:59;7.80;;;6.67;;
3427;SDS011;1727;42.624;23.406;2023-08-21T14:50:25;6.40;;;5.90;;
3427;SDS011;1727;42.624;23.406;2023-08-21T14:52:52;7.77;;;7.07;;
3427;SDS011;1727;42.624;23.406;2023-08-21T14:55:19;7.10;;;6.60;;
3427;SDS011;1727;42.624;23.406;2023-08-21T14:57:49;14.80;;;8.30;;
3427;SDS011;1727;42.624;23.406;2023-08-21T15:00:16;19.50;;;8.13;;
3427;SDS011;1727;42.624;23.406;2023-08-21T15:02:45;8.77;;;7.37;;
3427;SDS011;1727;42.624;23.406;2023-08-21T15:05:12;12.30;;;7.53;;
3427;SDS011;1727;42.624;23.406;2023-08-21T15:07:41;12.47;;;7.40;;